sensor_id;sensor_type;location;lat;lon;timestamp;P1;durP1;ratioP1;P2;durP2;ratioP2
74821;SDS011;63353;48.702;8.884;2022-09-09T06:23:03;3.50;;;2.00;;
74821;SDS011;63353;48.702;8.884;2022-09-09T06:25:29;1.30;;;1.30;;
74821;SDS011;63353;48.702;8.884;2022-09-09T06:27:54;2.37;;;1.60;;
74821;SDS011;63353;48.702;8.884;2022-09-09T06:30:20;2.37;;;1.70;;
74821;SDS011;63353;48.702;8.884;2022-09-09T06:32:45;2.57;;;1.80;;
74821;SDS011;63353;48.702;8.884;2022-09-09T06:35:11;4.17;;;1.70;;
74821;SDS011;63353;48.702;8.884;2022-09-09T06:37:38;3.80;;;2.00;;
74821;SDS011;63353;48.702;8.884;2022-09-09T06:40:04;2.73;;;1.80;;
74821;SDS011;63353;48.702;8.884;2022-09-09T06:42:30;1.60;;;1.50;;
74821;SDS011;63353;48.702;8.884;2022-09-09T06:44:56;1.60;;;1.50;;
74821;SDS011;63353;48.702;8.884;2022-09-09T06:47:22;3.83;;;1.67;;
74821;SDS011;63353;48.702;8.884;2022-09-09T06:49:47;1.97;;;1.60;;
74821;SDS011;63353;48.702;8.884;2022-09-09T06:52:13;2.10;;;1.57;;
74821;SDS011;63353;48.702;8.884;2022-09-09T06:54:39;4.40;;;1.70;;
74821;SDS011;63353;48.702;8.884;2022-09-09T06:57:04;2.43;;;1.57;;
74821;SDS011;63353;48.702;8.884;2022-09-09T06:59:32;3.97;;;1.90;;
74821;SDS011;63353;48.702;8.884;2022-09-09T07:01:57;3.00;;;1.83;;
74821;SDS011;63353;48.702;8.884;2022-09-09T07:04:23;4.20;;;2.10;;
74821;SDS011;63353;48.702;8.884;2022-09-09T07:06:50;3.30;;;2.07;;
74821;SDS011;63353;48.702;8.884;2022-09-09T07:09:17;3.70;;;1.90;;
74821;SDS011;63353;48.702;8.884;2022-09-09T07:11:44;4.23;;;1.93;;
74821;SDS011;63353;48.702;8.884;2022-09-09T07:14:11;1.73;;;1.63;;
74821;SDS011;63353;48.702;8.884;2022-09-09T07:16:40;1.77;;;1.63;;
74821;SDS011;63353;48.702;8.884;2022-09-09T07:19:06;1.93;;;1.70;;
74821;SDS011;63353;48.702;8.884;2022-09-09T07:21:33;2.43;;;1.67;;
74821;SDS011;63353;48.702;8.884;2022-09-09T07:23:59;3.10;;;2.07;;
74821;SDS011;63353;48.702;8.884;2022-09-09T07:26:26;3.10;;;1.80;;
74821;SDS011;63353;48.702;8.884;2022-09-09T07:28:53;1.97;;;1.87;;
74821;SDS011;63353;48.702;8.884;2022-09-09T07:31:25;3.47;;;2.03;;
74821;SDS011;63353;48.702;8.884;2022-09-09T07:33:52;2.00;;;1.80;;
74821;SDS011;63353;48.702;8.884;2022-09-09T07:36:19;2.03;;;1.80;;
74821;SDS011;63353;48.702;8.884;2022-09-09T07:38:51;3.00;;;1.93;;
74821;SDS011;63353;48.702;8.884;2022-09-09T07:41:22;1.90;;;1.80;;
74821;SDS011;63353;48.702;8.884;2022-09-09T07:43:50;2.10;;;1.90;;
74821;SDS011;63353;48.702;8.884;2022-09-09T07:46:17;1.80;;;1.70;;
74821;SDS011;63353;48.702;8.884;2022-09-09T07:48:51;1.70;;;1.60;;
74821;SDS011;63353;48.702;8.884;2022-09-09T07:51:22;2.97;;;1.80;;
74821;SDS011;63353;48.702;8.884;2022-09-09T07:53:54;2.47;;;1.70;;
74821;SDS011;63353;48.702;8.884;2022-09-09T07:56:23;1.80;;;1.70;;
74821;SDS011;63353;48.702;8.884;2022-09-09T07:58:49;1.83;;;1.70;;
74821;SDS011;63353;48.702;8.884;2022-09-09T08:03:56;3.07;;;1.80;;
74821;SDS011;63353;48.702;8.884;2022-09-09T08:06:27;2.33;;;1.60;;
74821;SDS011;63353;48.702;8.884;2022-09-09T08:08:54;2.37;;;1.83;;
74821;SDS011;63353;48.702;8.884;2022-09-09T08:11:20;2.83;;;1.60;;
74821;SDS011;63353;48.702;8.884;2022-09-09T08:13:49;1.77;;;1.67;;
74821;SDS011;63353;48.702;8.884;2022-09-09T08:16:16;2.43;;;1.67;;
74821;SDS011;63353;48.702;8.884;2022-09-09T08:18:46;1.80;;;1.70;;
74821;SDS011;63353;48.702;8.884;2022-09-09T08:21:14;3.50;;;1.60;;
74821;SDS011;63353;48.702;8.884;2022-09-09T08:23:43;2.30;;;1.60;;
74821;SDS011;63353;48.702;8.884;2022-09-09T08:26:26;2.83;;;1.47;;
74821;SDS011;63353;48.702;8.884;2022-09-09T08:28:54;1.70;;;1.60;;
74821;SDS011;63353;48.702;8.884;2022-09-09T08:31:23;1.83;;;1.67;;
74821;SDS011;63353;48.702;8.884;2022-09-09T08:33:54;2.13;;;1.40;;
74821;SDS011;63353;48.702;8.884;2022-09-09T08:36:21;2.83;;;1.70;;
74821;SDS011;63353;48.702;8.884;2022-09-09T08:38:49;1.97;;;1.60;;
74821;SDS011;63353;48.702;8.884;2022-09-09T08:44:14;3.37;;;1.73;;
74821;SDS011;63353;48.702;8.884;2022-09-09T08:52:28;10.33;;;1.97;;
74821;SDS011;63353;48.702;8.884;2022-09-09T08:54:56;2.67;;;1.80;;
74821;SDS011;63353;48.702;8.884;2022-09-09T08:57:28;4.00;;;1.50;;
74821;SDS011;63353;48.702;8.884;2022-09-09T08:59:57;2.80;;;1.77;;
74821;SDS011;63353;48.702;8.884;2022-09-09T09:02:25;3.17;;;2.10;;
74821;SDS011;63353;48.702;8.884;2022-09-09T09:05:22;3.07;;;1.60;;
74821;SDS011;63353;48.702;8.884;2022-09-09T09:11:10;3.13;;;1.70;;
74821;SDS011;63353;48.702;8.884;2022-09-09T09:13:41;2.13;;;1.90;;
74821;SDS011;63353;48.702;8.884;2022-09-09T09:19:03;2.70;;;1.70;;
74821;SDS011;63353;48.702;8.884;2022-09-09T09:23:59;2.93;;;1.60;;
74821;SDS011;63353;48.702;8.884;2022-09-09T09:26:29;1.80;;;1.47;;
74821;SDS011;63353;48.702;8.884;2022-09-09T09:28:58;3.17;;;1.90;;
74821;SDS011;63353;48.702;8.884;2022-09-09T09:31:25;2.43;;;1.60;;
74821;SDS011;63353;48.702;8.884;2022-09-09T09:33:55;2.00;;;1.67;;
74821;SDS011;63353;48.702;8.884;2022-09-09T09:36:39;2.53;;;1.70;;
74821;SDS011;63353;48.702;8.884;2022-09-09T09:39:21;2.40;;;1.50;;
74821;SDS011;63353;48.702;8.884;2022-09-09T09:41:51;3.07;;;1.53;;
74821;SDS011;63353;48.702;8.884;2022-09-09T09:44:22;4.43;;;1.70;;
74821;SDS011;63353;48.702;8.884;2022-09-09T09:46:53;4.07;;;1.73;;
74821;SDS011;63353;48.702;8.884;2022-09-09T09:49:30;6.03;;;1.60;;
74821;SDS011;63353;48.702;8.884;2022-09-09T09:52:00;4.63;;;1.70;;
74821;SDS011;63353;48.702;8.884;2022-09-09T09:54:30;3.27;;;1.63;;
74821;SDS011;63353;48.702;8.884;2022-09-09T09:57:11;4.90;;;2.40;;
74821;SDS011;63353;48.702;8.884;2022-09-09T09:59:40;9.50;;;3.33;;
74821;SDS011;63353;48.702;8.884;2022-09-09T10:02:12;5.63;;;2.70;;
74821;SDS011;63353;48.702;8.884;2022-09-09T10:04:38;6.53;;;3.00;;
74821;SDS011;63353;48.702;8.884;2022-09-09T10:07:11;8.53;;;2.97;;
74821;SDS011;63353;48.702;8.884;2022-09-09T10:09:37;7.43;;;2.73;;
74821;SDS011;63353;48.702;8.884;2022-09-09T10:15:16;6.70;;;2.70;;
74821;SDS011;63353;48.702;8.884;2022-09-09T10:26:21;4.87;;;2.33;;
74821;SDS011;63353;48.702;8.884;2022-09-09T10:36:47;2.80;;;1.70;;
74821;SDS011;63353;48.702;8.884;2022-09-09T10:44:58;3.43;;;1.73;;
74821;SDS011;63353;48.702;8.884;2022-09-09T10:48:06;3.13;;;1.90;;
74821;SDS011;63353;48.702;8.884;2022-09-09T10:56:33;2.87;;;1.30;;
74821;SDS011;63353;48.702;8.884;2022-09-09T10:59:07;2.70;;;1.40;;
74821;SDS011;63353;48.702;8.884;2022-09-09T11:01:43;2.07;;;1.40;;
74821;SDS011;63353;48.702;8.884;2022-09-09T11:04:16;2.67;;;1.50;;
74821;SDS011;63353;48.702;8.884;2022-09-09T11:06:49;3.10;;;1.50;;
74821;SDS011;63353;48.702;8.884;2022-09-09T11:09:22;2.90;;;1.50;;
74821;SDS011;63353;48.702;8.884;2022-09-09T11:11:54;5.03;;;1.50;;
74821;SDS011;63353;48.702;8.884;2022-09-09T11:17:05;10.67;;;1.67;;
74821;SDS011;63353;48.702;8.884;2022-09-09T11:19:41;3.23;;;1.57;;
74821;SDS011;63353;48.702;8.884;2022-09-09T11:24:41;3.93;;;1.67;;
74821;SDS011;63353;48.702;8.884;2022-09-09T11:27:22;1.33;;;1.20;;
74821;SDS011;63353;48.702;8.884;2022-09-09T11:30:13;1.23;;;1.13;;
74821;SDS011;63353;48.702;8.884;2022-09-09T11:40:54;2.63;;;1.03;;
74821;SDS011;63353;48.702;8.884;2022-09-09T11:43:47;7.93;;;1.40;;
74821;SDS011;63353;48.702;8.884;2022-09-09T11:46:13;3.20;;;1.10;;
74821;SDS011;63353;48.702;8.884;2022-09-09T11:48:43;3.03;;;1.10;;
74821;SDS011;63353;48.702;8.884;2022-09-09T11:56:22;1.47;;;1.00;;
74821;SDS011;63353;48.702;8.884;2022-09-09T11:59:21;10.33;;;1.37;;
74821;SDS011;63353;48.702;8.884;2022-09-09T12:01:57;2.60;;;1.43;;
74821;SDS011;63353;48.702;8.884;2022-09-09T12:12:44;2.87;;;1.10;;
74821;SDS011;63353;48.702;8.884;2022-09-09T12:17:42;1.57;;;1.00;;
74821;SDS011;63353;48.702;8.884;2022-09-09T12:20:17;1.73;;;1.00;;
74821;SDS011;63353;48.702;8.884;2022-09-09T12:25:54;2.70;;;1.10;;
74821;SDS011;63353;48.702;8.884;2022-09-09T12:28:25;1.43;;;1.00;;
74821;SDS011;63353;48.702;8.884;2022-09-09T12:31:10;1.77;;;1.10;;
74821;SDS011;63353;48.702;8.884;2022-09-09T12:33:45;2.00;;;1.00;;
74821;SDS011;63353;48.702;8.884;2022-09-09T12:36:16;1.23;;;1.10;;
74821;SDS011;63353;48.702;8.884;2022-09-09T12:38:53;2.20;;;1.20;;
74821;SDS011;63353;48.702;8.884;2022-09-09T12:41:23;2.20;;;1.10;;
74821;SDS011;63353;48.702;8.884;2022-09-09T12:43:50;2.53;;;1.20;;
74821;SDS011;63353;48.702;8.884;2022-09-09T12:46:31;3.10;;;1.20;;
74821;SDS011;63353;48.702;8.884;2022-09-09T12:49:04;4.93;;;1.30;;
74821;SDS011;63353;48.702;8.884;2022-09-09T12:51:32;3.40;;;1.20;;
74821;SDS011;63353;48.702;8.884;2022-09-09T12:53:59;4.40;;;1.27;;
74821;SDS011;63353;48.702;8.884;2022-09-09T12:56:26;2.60;;;1.30;;
74821;SDS011;63353;48.702;8.884;2022-09-09T12:58:55;3.87;;;1.20;;
74821;SDS011;63353;48.702;8.884;2022-09-09T13:01:27;1.27;;;1.10;;
74821;SDS011;63353;48.702;8.884;2022-09-09T13:03:55;1.73;;;1.20;;
74821;SDS011;63353;48.702;8.884;2022-09-09T13:06:22;2.47;;;1.07;;
74821;SDS011;63353;48.702;8.884;2022-09-09T13:08:52;1.70;;;1.17;;
74821;SDS011;63353;48.702;8.884;2022-09-09T13:11:21;3.30;;;0.90;;
74821;SDS011;63353;48.702;8.884;2022-09-09T13:13:56;2.73;;;1.10;;
74821;SDS011;63353;48.702;8.884;2022-09-09T13:16:24;1.50;;;1.00;;
74821;SDS011;63353;48.702;8.884;2022-09-09T13:18:57;2.20;;;0.80;;
74821;SDS011;63353;48.702;8.884;2022-09-09T13:21:31;2.90;;;1.00;;
74821;SDS011;63353;48.702;8.884;2022-09-09T13:24:03;1.10;;;1.00;;
74821;SDS011;63353;48.702;8.884;2022-09-09T13:26:55;1.13;;;1.00;;
74821;SDS011;63353;48.702;8.884;2022-09-09T13:29:28;1.20;;;0.97;;
74821;SDS011;63353;48.702;8.884;2022-09-09T13:32:04;1.13;;;1.03;;
74821;SDS011;63353;48.702;8.884;2022-09-09T13:34:33;1.73;;;1.10;;
74821;SDS011;63353;48.702;8.884;2022-09-09T13:37:04;1.97;;;1.00;;
74821;SDS011;63353;48.702;8.884;2022-09-09T13:44:24;1.10;;;1.00;;
74821;SDS011;63353;48.702;8.884;2022-09-09T13:49:39;1.00;;;0.90;;
74821;SDS011;63353;48.702;8.884;2022-09-09T13:52:08;1.20;;;1.10;;
74821;SDS011;63353;48.702;8.884;2022-09-09T13:54:39;1.00;;;1.00;;
74821;SDS011;63353;48.702;8.884;2022-09-09T13:57:05;0.80;;;0.80;;
74821;SDS011;63353;48.702;8.884;2022-09-09T13:59:38;2.00;;;1.03;;
74821;SDS011;63353;48.702;8.884;2022-09-09T14:02:04;1.10;;;1.00;;
74821;SDS011;63353;48.702;8.884;2022-09-09T14:04:30;2.30;;;0.97;;
74821;SDS011;63353;48.702;8.884;2022-09-09T14:06:55;0.70;;;0.70;;
74821;SDS011;63353;48.702;8.884;2022-09-09T14:09:21;1.13;;;1.00;;
74821;SDS011;63353;48.702;8.884;2022-09-09T14:11:47;1.07;;;0.90;;
74821;SDS011;63353;48.702;8.884;2022-09-09T14:14:12;4.93;;;1.20;;
74821;SDS011;63353;48.702;8.884;2022-09-09T14:16:38;2.47;;;0.93;;
74821;SDS011;63353;48.702;8.884;2022-09-09T14:19:04;1.23;;;0.70;;
74821;SDS011;63353;48.702;8.884;2022-09-09T14:21:29;3.85;;;0.98;;
74821;SDS011;63353;48.702;8.884;2022-09-09T14:23:55;2.43;;;1.10;;
74821;SDS011;63353;48.702;8.884;2022-09-09T14:26:23;2.43;;;1.10;;
74821;SDS011;63353;48.702;8.884;2022-09-09T14:28:49;1.58;;;1.00;;
74821;SDS011;63353;48.702;8.884;2022-09-09T14:31:15;5.05;;;1.25;;
74821;SDS011;63353;48.702;8.884;2022-09-09T14:33:42;4.28;;;1.27;;
74821;SDS011;63353;48.702;8.884;2022-09-09T14:36:11;2.25;;;1.10;;
74821;SDS011;63353;48.702;8.884;2022-09-09T14:38:37;4.28;;;1.15;;
74821;SDS011;63353;48.702;8.884;2022-09-09T14:41:05;6.67;;;1.27;;
74821;SDS011;63353;48.702;8.884;2022-09-09T14:43:31;2.60;;;1.10;;
74821;SDS011;63353;48.702;8.884;2022-09-09T14:45:57;2.38;;;1.20;;
74821;SDS011;63353;48.702;8.884;2022-09-09T14:48:32;2.42;;;0.90;;
74821;SDS011;63353;48.702;8.884;2022-09-09T14:51:04;2.97;;;1.13;;
74821;SDS011;63353;48.702;8.884;2022-09-09T14:53:37;2.15;;;1.00;;
74821;SDS011;63353;48.702;8.884;2022-09-09T14:56:05;2.67;;;1.13;;
74821;SDS011;63353;48.702;8.884;2022-09-09T14:58:32;2.95;;;1.30;;
74821;SDS011;63353;48.702;8.884;2022-09-09T15:01:08;3.40;;;1.20;;
74821;SDS011;63353;48.702;8.884;2022-09-09T15:03:38;2.20;;;1.20;;
74821;SDS011;63353;48.702;8.884;2022-09-09T15:06:06;2.30;;;1.17;;
74821;SDS011;63353;48.702;8.884;2022-09-09T15:08:36;2.20;;;1.10;;
74821;SDS011;63353;48.702;8.884;2022-09-09T15:11:03;1.90;;;1.00;;
74821;SDS011;63353;48.702;8.884;2022-09-09T15:13:29;2.13;;;0.98;;
74821;SDS011;63353;48.702;8.884;2022-09-09T15:15:55;3.13;;;1.15;;
74821;SDS011;63353;48.702;8.884;2022-09-09T15:18:22;1.00;;;1.00;;
74821;SDS011;63353;48.702;8.884;2022-09-09T15:20:48;0.90;;;0.90;;
74821;SDS011;63353;48.702;8.884;2022-09-09T15:23:14;1.23;;;1.00;;
74821;SDS011;63353;48.702;8.884;2022-09-09T15:25:54;1.73;;;1.30;;
74821;SDS011;63353;48.702;8.884;2022-09-09T15:28:21;1.02;;;1.00;;
74821;SDS011;63353;48.702;8.884;2022-09-09T15:30:50;1.20;;;1.00;;
74821;SDS011;63353;48.702;8.884;2022-09-09T15:33:17;1.00;;;1.00;;
74821;SDS011;63353;48.702;8.884;2022-09-09T15:35:44;1.25;;;1.10;;
74821;SDS011;63353;48.702;8.884;2022-09-09T15:38:11;1.20;;;1.10;;
74821;SDS011;63353;48.702;8.884;2022-09-09T15:40:40;1.43;;;1.07;;
74821;SDS011;63353;48.702;8.884;2022-09-09T15:43:06;2.17;;;1.10;;
74821;SDS011;63353;48.702;8.884;2022-09-09T15:45:32;2.70;;;1.07;;
74821;SDS011;63353;48.702;8.884;2022-09-09T15:47:59;1.40;;;0.90;;
74821;SDS011;63353;48.702;8.884;2022-09-09T15:50:25;0.98;;;0.98;;
74821;SDS011;63353;48.702;8.884;2022-09-09T15:52:51;3.07;;;1.10;;
74821;SDS011;63353;48.702;8.884;2022-09-09T15:55:18;1.77;;;1.00;;
74821;SDS011;63353;48.702;8.884;2022-09-09T15:57:45;2.17;;;1.10;;
74821;SDS011;63353;48.702;8.884;2022-09-09T16:00:11;1.67;;;1.43;;
74821;SDS011;63353;48.702;8.884;2022-09-09T16:02:38;1.70;;;1.00;;
74821;SDS011;63353;48.702;8.884;2022-09-09T16:05:04;2.27;;;1.00;;
74821;SDS011;63353;48.702;8.884;2022-09-09T16:07:31;2.40;;;1.30;;
74821;SDS011;63353;48.702;8.884;2022-09-09T16:09:56;2.53;;;1.00;;
74821;SDS011;63353;48.702;8.884;2022-09-09T16:12:22;8.83;;;1.37;;
74821;SDS011;63353;48.702;8.884;2022-09-09T16:14:48;3.47;;;1.30;;
74821;SDS011;63353;48.702;8.884;2022-09-09T16:17:14;3.23;;;1.20;;
74821;SDS011;63353;48.702;8.884;2022-09-09T16:19:40;1.27;;;1.17;;
74821;SDS011;63353;48.702;8.884;2022-09-09T16:22:06;4.23;;;1.10;;
74821;SDS011;63353;48.702;8.884;2022-09-09T16:24:32;3.30;;;1.30;;
74821;SDS011;63353;48.702;8.884;2022-09-09T16:26:58;3.87;;;1.30;;
74821;SDS011;63353;48.702;8.884;2022-09-09T16:29:24;3.53;;;1.20;;
74821;SDS011;63353;48.702;8.884;2022-09-09T16:31:52;3.47;;;1.23;;
74821;SDS011;63353;48.702;8.884;2022-09-09T16:34:18;3.33;;;1.30;;
74821;SDS011;63353;48.702;8.884;2022-09-09T16:36:45;9.37;;;1.47;;
74821;SDS011;63353;48.702;8.884;2022-09-09T16:39:13;5.57;;;1.40;;
74821;SDS011;63353;48.702;8.884;2022-09-09T16:41:40;3.30;;;1.20;;
74821;SDS011;63353;48.702;8.884;2022-09-09T16:44:08;2.40;;;1.20;;
74821;SDS011;63353;48.702;8.884;2022-09-09T16:46:36;1.40;;;1.00;;
74821;SDS011;63353;48.702;8.884;2022-09-09T16:49:04;2.60;;;1.00;;
74821;SDS011;63353;48.702;8.884;2022-09-09T16:51:33;2.10;;;1.10;;
74821;SDS011;63353;48.702;8.884;2022-09-09T16:54:01;2.10;;;1.10;;
74821;SDS011;63353;48.702;8.884;2022-09-09T16:56:29;3.43;;;1.10;;
74821;SDS011;63353;48.702;8.884;2022-09-09T16:58:58;1.07;;;0.87;;
74821;SDS011;63353;48.702;8.884;2022-09-09T17:01:30;3.77;;;0.97;;
74821;SDS011;63353;48.702;8.884;2022-09-09T17:03:59;2.53;;;0.97;;
74821;SDS011;63353;48.702;8.884;2022-09-09T17:06:27;1.40;;;0.90;;
74821;SDS011;63353;48.702;8.884;2022-09-09T17:08:58;2.20;;;1.10;;
74821;SDS011;63353;48.702;8.884;2022-09-09T17:11:32;2.63;;;1.20;;
74821;SDS011;63353;48.702;8.884;2022-09-09T17:13:58;1.60;;;1.10;;
74821;SDS011;63353;48.702;8.884;2022-09-09T17:16:26;2.03;;;1.20;;
74821;SDS011;63353;48.702;8.884;2022-09-09T17:18:54;3.13;;;0.98;;
74821;SDS011;63353;48.702;8.884;2022-09-09T17:21:21;5.23;;;1.20;;
74821;SDS011;63353;48.702;8.884;2022-09-09T17:23:50;1.83;;;1.00;;
74821;SDS011;63353;48.702;8.884;2022-09-09T17:26:17;3.10;;;0.93;;
74821;SDS011;63353;48.702;8.884;2022-09-09T17:28:45;3.67;;;1.10;;
74821;SDS011;63353;48.702;8.884;2022-09-09T17:31:11;1.95;;;1.40;;
74821;SDS011;63353;48.702;8.884;2022-09-09T17:33:39;7.53;;;1.33;;
74821;SDS011;63353;48.702;8.884;2022-09-09T17:36:22;2.30;;;1.17;;
74821;SDS011;63353;48.702;8.884;2022-09-09T17:38:49;3.93;;;1.10;;
74821;SDS011;63353;48.702;8.884;2022-09-09T17:41:17;3.10;;;1.00;;
74821;SDS011;63353;48.702;8.884;2022-09-09T17:43:44;1.53;;;0.90;;
74821;SDS011;63353;48.702;8.884;2022-09-09T17:46:12;4.37;;;1.17;;
74821;SDS011;63353;48.702;8.884;2022-09-09T17:48:44;4.93;;;1.17;;
74821;SDS011;63353;48.702;8.884;2022-09-09T17:51:18;2.90;;;0.90;;
74821;SDS011;63353;48.702;8.884;2022-09-09T17:53:49;5.87;;;1.33;;
74821;SDS011;63353;48.702;8.884;2022-09-09T17:56:16;2.63;;;1.00;;
74821;SDS011;63353;48.702;8.884;2022-09-09T17:58:45;2.77;;;1.17;;
74821;SDS011;63353;48.702;8.884;2022-09-09T18:01:12;3.83;;;1.30;;
74821;SDS011;63353;48.702;8.884;2022-09-09T18:03:46;2.95;;;1.08;;
74821;SDS011;63353;48.702;8.884;2022-09-09T18:06:14;3.20;;;1.23;;
74821;SDS011;63353;48.702;8.884;2022-09-09T18:08:41;2.88;;;1.10;;
74821;SDS011;63353;48.702;8.884;2022-09-09T18:11:11;1.57;;;1.10;;
74821;SDS011;63353;48.702;8.884;2022-09-09T18:13:37;2.73;;;1.00;;
74821;SDS011;63353;48.702;8.884;2022-09-09T18:16:06;3.20;;;1.00;;
74821;SDS011;63353;48.702;8.884;2022-09-09T18:18:33;3.47;;;1.30;;
74821;SDS011;63353;48.702;8.884;2022-09-09T18:20:59;1.27;;;1.10;;
74821;SDS011;63353;48.702;8.884;2022-09-09T18:23:27;2.10;;;1.13;;
74821;SDS011;63353;48.702;8.884;2022-09-09T18:25:54;0.97;;;0.97;;
74821;SDS011;63353;48.702;8.884;2022-09-09T18:28:20;1.40;;;0.83;;
74821;SDS011;63353;48.702;8.884;2022-09-09T18:30:47;3.07;;;1.37;;
74821;SDS011;63353;48.702;8.884;2022-09-09T18:33:13;1.77;;;1.20;;
74821;SDS011;63353;48.702;8.884;2022-09-09T18:35:38;2.50;;;1.20;;
74821;SDS011;63353;48.702;8.884;2022-09-09T18:38:04;1.63;;;1.10;;
74821;SDS011;63353;48.702;8.884;2022-09-09T18:40:30;1.73;;;1.10;;
74821;SDS011;63353;48.702;8.884;2022-09-09T18:42:56;2.70;;;1.10;;
74821;SDS011;63353;48.702;8.884;2022-09-09T18:45:22;1.40;;;1.20;;
74821;SDS011;63353;48.702;8.884;2022-09-09T18:47:48;4.00;;;1.20;;
74821;SDS011;63353;48.702;8.884;2022-09-09T18:50:14;3.23;;;1.20;;
74821;SDS011;63353;48.702;8.884;2022-09-09T18:52:40;1.63;;;1.13;;
74821;SDS011;63353;48.702;8.884;2022-09-09T18:55:06;2.30;;;1.10;;
74821;SDS011;63353;48.702;8.884;2022-09-09T18:57:33;1.97;;;1.10;;
74821;SDS011;63353;48.702;8.884;2022-09-09T18:59:59;0.93;;;0.93;;
74821;SDS011;63353;48.702;8.884;2022-09-09T19:02:25;2.43;;;1.10;;
74821;SDS011;63353;48.702;8.884;2022-09-09T19:04:51;1.73;;;1.10;;
74821;SDS011;63353;48.702;8.884;2022-09-09T19:07:17;1.87;;;1.10;;
74821;SDS011;63353;48.702;8.884;2022-09-09T19:09:43;1.83;;;1.00;;
74821;SDS011;63353;48.702;8.884;2022-09-09T19:12:09;1.47;;;1.10;;
74821;SDS011;63353;48.702;8.884;2022-09-09T19:14:34;2.17;;;0.90;;
74821;SDS011;63353;48.702;8.884;2022-09-09T19:17:00;1.17;;;1.07;;
74821;SDS011;63353;48.702;8.884;2022-09-09T19:19:30;0.93;;;0.93;;
74821;SDS011;63353;48.702;8.884;2022-09-09T19:21:57;1.70;;;1.30;;
74821;SDS011;63353;48.702;8.884;2022-09-09T19:24:28;1.97;;;1.30;;
74821;SDS011;63353;48.702;8.884;2022-09-09T19:26:56;1.10;;;1.10;;
74821;SDS011;63353;48.702;8.884;2022-09-09T19:29:26;1.30;;;1.17;;
74821;SDS011;63353;48.702;8.884;2022-09-09T19:31:54;1.10;;;1.10;;
74821;SDS011;63353;48.702;8.884;2022-09-09T19:34:22;3.60;;;1.13;;
74821;SDS011;63353;48.702;8.884;2022-09-09T19:36:48;1.50;;;1.00;;
74821;SDS011;63353;48.702;8.884;2022-09-09T19:39:15;1.47;;;1.30;;
74821;SDS011;63353;48.702;8.884;2022-09-09T19:41:42;1.03;;;1.00;;
74821;SDS011;63353;48.702;8.884;2022-09-09T19:44:09;1.20;;;1.10;;
74821;SDS011;63353;48.702;8.884;2022-09-09T19:46:38;0.97;;;0.97;;
74821;SDS011;63353;48.702;8.884;2022-09-09T19:49:05;1.40;;;1.30;;
74821;SDS011;63353;48.702;8.884;2022-09-09T19:51:31;2.13;;;1.30;;
